Aviation Digital Data Service (ADDS)

Output produced by METARs form (1327 UTC 24 January 2021)
found at http://www.aviationweather.gov/metar/data/
 
Forecast for: VLLB (LUANG-PRABANG , LA)
Text: TAF VLLB 241100Z 2412/2512 36002KT 7000 FEW020 FEW060
Forecast period: 1200 UTC 24 January 2021 to 1200 UTC 25 January 2021
Forecast type: FROM: standard forecast or significant change
Winds: from the N (360 degrees) at 2 MPH (2 knots; 1.0 m/s)
Visibility: 4 miles (7 km)
Ceiling: at least 12,000 feet AGL
Clouds: few clouds at 2000 feet AGL
few clouds at 6000 feet AGL
Weather: no significant weather forecast for this period